Time;durP1;ratioP1;P1;durP2;ratioP2;P2;SDS_P1;SDS_P2;PMS_P1;PMS_P2;Temp;Humidity;BMP_temperature;BMP_pressure;BME280_temperature;BME280_humidity;BME280_pressure;Samples;Min_cycle;Max_cycle;Signal;HPM_P1;HPM_P2
2021/10/03 00:01:59;;;;;;;9.88;6.30;;;;;;;-139.48;100.00;61774.03;4960546;28;20053;-70
2021/10/03 00:04:43;;;;;;;10.40;5.90;;;;;;;-139.48;100.00;61774.03;4947344;28;20054;-70
2021/10/03 00:07:29;;;;;;;6.40;5.70;;;;;;;-139.48;100.00;61774.03;4960570;28;20499;-70
2021/10/03 00:10:13;;;;;;;10.35;5.75;;;;;;;-139.48;100.00;61774.03;4960285;28;20531;-70
2021/10/03 00:13:03;;;;;;;6.78;5.88;;;;;;;-139.48;100.00;61774.03;4946971;28;20112;-70
2021/10/03 00:15:47;;;;;;;9.18;6.45;;;;;;;-139.48;100.00;61774.03;4961400;28;20138;-69
2021/10/03 00:18:32;;;;;;;7.93;5.90;;;;;;;-139.48;100.00;61774.03;4960723;28;20074;-70
2021/10/03 00:21:16;;;;;;;7.75;5.70;;;;;;;-139.48;100.00;61774.03;4960008;28;20458;-70
2021/10/03 00:24:00;;;;;;;9.20;6.68;;;;;;;-139.48;100.00;61774.03;4974962;28;20118;-68
2021/10/03 00:26:44;;;;;;;6.93;5.55;;;;;;;-139.48;100.00;61774.03;4946916;28;20141;-70
2021/10/03 00:29:29;;;;;;;7.22;5.43;;;;;;;-139.48;100.00;61774.03;4946657;28;20058;-70
2021/10/03 00:32:16;;;;;;;6.90;5.47;;;;;;;-139.48;100.00;61774.03;4946377;28;20412;-70
2021/10/03 00:35:00;;;;;;;7.72;5.40;;;;;;;-139.48;100.00;61774.03;4959908;28;20101;-70
2021/10/03 00:37:44;;;;;;;8.52;6.05;;;;;;;-139.48;100.00;61774.03;4960100;28;20053;-70
2021/10/03 00:40:29;;;;;;;10.25;5.57;;;;;;;-139.48;100.00;61774.03;4974691;28;20449;-70
2021/10/03 00:43:13;;;;;;;8.25;5.55;;;;;;;-139.48;100.00;61774.03;4960073;28;20049;-70
2021/10/03 00:45:57;;;;;;;7.20;5.72;;;;;;;-139.48;100.00;61774.03;4959535;28;20050;-70
2021/10/03 00:48:41;;;;;;;6.25;5.13;;;;;;;-139.48;100.00;61774.03;4960139;28;20547;-70
2021/10/03 00:51:25;;;;;;;6.03;5.07;;;;;;;-139.48;100.00;61774.03;4974414;28;20598;-70
2021/10/03 00:54:09;;;;;;;8.27;5.38;;;;;;;-139.48;100.00;61774.03;4946472;28;20057;-70
2021/10/03 00:56:53;;;;;;;7.53;5.60;;;;;;;-139.48;100.00;61774.03;4959986;28;20057;-70
2021/10/03 00:59:37;;;;;;;8.45;5.60;;;;;;;-139.48;100.00;61774.03;4959878;28;20473;-70
2021/10/03 01:02:21;;;;;;;7.43;5.80;;;;;;;-139.48;100.00;61774.03;4959857;28;20050;-70
2021/10/03 01:05:07;;;;;;;8.43;5.80;;;;;;;-139.48;100.00;61774.03;4959861;28;20054;-70
2021/10/03 01:07:50;;;;;;;12.80;5.80;;;;;;;-139.48;100.00;61774.03;4960008;28;20077;-70
2021/10/03 01:10:38;;;;;;;6.55;5.80;;;;;;;-139.48;100.00;61774.03;4945889;28;20101;-69
2021/10/03 01:13:23;;;;;;;9.95;5.78;;;;;;;-139.48;100.00;61774.03;4959577;28;20049;-69
2021/10/03 01:16:08;;;;;;;6.80;5.72;;;;;;;-139.48;100.00;61774.03;4974363;28;20049;-70
2021/10/03 01:18:52;;;;;;;8.13;5.82;;;;;;;-139.48;100.00;61774.03;4959733;28;20105;-70
2021/10/03 01:21:36;;;;;;;6.72;5.47;;;;;;;-139.48;100.00;61774.03;4974303;28;20101;-70
2021/10/03 01:24:20;;;;;;;6.40;5.28;;;;;;;-139.48;100.00;61774.03;4959719;28;20097;-70
2021/10/03 01:27:04;;;;;;;8.68;5.70;;;;;;;-139.48;100.00;61774.03;4959396;28;20049;-70
2021/10/03 01:29:52;;;;;;;9.02;5.75;;;;;;;-139.48;100.00;61774.03;4946027;28;20054;-70
2021/10/03 01:32:36;;;;;;;7.22;6.25;;;;;;;-139.48;100.00;61774.03;4946515;28;20125;-70
2021/10/03 01:35:23;;;;;;;7.15;5.65;;;;;;;-139.48;100.00;61774.03;4946144;28;20117;-70
2021/10/03 01:38:10;;;;;;;7.18;5.57;;;;;;;-139.48;100.00;61774.03;4959528;28;20113;-70
2021/10/03 01:40:54;;;;;;;8.40;6.13;;;;;;;-139.48;100.00;61774.03;4959512;28;20062;-70
2021/10/03 01:43:38;;;;;;;8.98;5.80;;;;;;;-139.48;100.00;61774.03;4959295;28;20576;-70
2021/10/03 01:46:22;;;;;;;8.05;5.53;;;;;;;-139.48;100.00;61774.03;4945894;28;20050;-69
2021/10/03 01:49:06;;;;;;;8.35;6.20;;;;;;;-139.48;100.00;61774.03;4959406;28;20089;-70
2021/10/03 01:51:50;;;;;;;10.95;6.45;;;;;;;-139.48;100.00;61774.03;4959181;28;20046;-70
2021/10/03 01:54:34;;;;;;;6.75;5.70;;;;;;;-139.48;100.00;61774.03;4945661;28;20050;-70
2021/10/03 01:57:17;;;;;;;7.93;6.15;;;;;;;-139.48;100.00;61774.03;4959522;28;20050;-70
2021/10/03 02:00:02;;;;;;;6.53;5.13;;;;;;;-139.48;100.00;61774.03;4962811;28;20050;-70
2021/10/03 02:02:46;;;;;;;6.28;5.40;;;;;;;-139.48;100.00;61774.03;4962496;28;20110;-70
2021/10/03 02:05:34;;;;;;;8.93;6.22;;;;;;;-139.48;100.00;61774.03;4962963;28;20050;-69
2021/10/03 02:08:18;;;;;;;9.00;6.70;;;;;;;-139.48;100.00;61774.03;4977293;28;20121;-70
2021/10/03 02:11:03;;;;;;;8.35;6.50;;;;;;;-139.48;100.00;61774.03;4977206;28;20049;-70
2021/10/03 02:13:47;;;;;;;7.60;6.10;;;;;;;-139.48;100.00;61774.03;4949150;28;20150;-70
2021/10/03 02:16:31;;;;;;;7.93;6.15;;;;;;;-139.48;100.00;61774.03;4977330;28;20054;-70
2021/10/03 02:19:15;;;;;;;9.20;6.30;;;;;;;-139.48;100.00;61774.03;4962542;28;20074;-70
2021/10/03 02:22:00;;;;;;;8.00;5.45;;;;;;;-139.48;100.00;61774.03;4962186;28;20514;-70
2021/10/03 02:24:45;;;;;;;9.93;5.90;;;;;;;-139.48;100.00;61774.03;4962657;28;20094;-70
2021/10/03 02:27:29;;;;;;;9.43;5.47;;;;;;;-139.48;100.00;61774.03;4962229;28;20120;-70
2021/10/03 02:30:13;;;;;;;6.50;5.85;;;;;;;-139.48;100.00;61774.03;4962101;28;20105;-70
2021/10/03 02:32:56;;;;;;;;;;;;;;;-139.48;100.00;61774.03;4962702;28;20046;-69
2021/10/03 02:35:42;;;;;;;9.43;5.90;;;;;;;-139.48;100.00;61774.03;4948409;28;19921;-70
2021/10/03 02:38:26;;;;;;;10.00;6.03;;;;;;;-139.48;100.00;61774.03;4961945;28;20562;-70
2021/10/03 02:41:12;;;;;;;6.70;5.40;;;;;;;-139.48;100.00;61774.03;4961761;28;20057;-70
2021/10/03 02:43:58;;;;;;;6.80;5.78;;;;;;;-139.48;100.00;61774.03;4948278;28;20086;-68
2021/10/03 02:46:42;;;;;;;8.68;5.90;;;;;;;-139.48;100.00;61774.03;4962064;28;20053;-71
2021/10/03 02:49:26;;;;;;;9.48;6.43;;;;;;;-139.48;100.00;61774.03;4961930;28;20053;-70
2021/10/03 02:52:12;;;;;;;6.78;5.80;;;;;;;-139.48;100.00;61774.03;4948585;28;20054;-70
2021/10/03 02:54:56;;;;;;;8.95;5.93;;;;;;;-139.48;100.00;61774.03;4961593;28;20053;-70
2021/10/03 02:57:40;;;;;;;10.13;6.07;;;;;;;-139.48;100.00;61774.03;4961897;28;20081;-70
2021/10/03 03:00:24;;;;;;;7.40;6.20;;;;;;;-139.48;100.00;61774.03;4976351;28;20114;-71
2021/10/03 03:03:08;;;;;;;10.32;6.28;;;;;;;-139.48;100.00;61774.03;4961735;28;20137;-70
2021/10/03 03:05:52;;;;;;;8.40;5.75;;;;;;;-139.48;100.00;61774.03;4961404;28;20064;-70
2021/10/03 03:08:36;;;;;;;8.05;6.00;;;;;;;-139.48;100.00;61774.03;4948203;28;20120;-70
2021/10/03 03:11:25;;;;;;;7.63;5.70;;;;;;;-139.48;100.00;61774.03;4948072;28;20420;-70
2021/10/03 03:14:09;;;;;;;6.72;5.70;;;;;;;-139.48;100.00;61774.03;4948458;28;20471;-69
2021/10/03 03:16:53;;;;;;;7.30;5.85;;;;;;;-139.48;100.00;61774.03;4961457;28;20137;-70
2021/10/03 03:19:37;;;;;;;8.02;6.43;;;;;;;-139.48;100.00;61774.03;4961435;28;20054;-70
2021/10/03 03:22:21;;;;;;;10.90;6.55;;;;;;;-139.48;100.00;61774.03;4975679;28;20053;-70
2021/10/03 03:25:06;;;;;;;;;;;;;;;-139.48;100.00;61774.03;4948155;28;20113;-70
2021/10/03 03:27:50;;;;;;;9.65;6.28;;;;;;;-139.48;100.00;61774.03;4947809;28;19965;-70
2021/10/03 03:30:35;;;;;;;7.03;6.32;;;;;;;-139.48;100.00;61774.03;4960662;28;20046;-70
2021/10/03 03:33:19;;;;;;;10.77;6.35;;;;;;;-139.48;100.00;61774.03;4947884;28;20492;-70
2021/10/03 03:36:03;;;;;;;7.57;6.63;;;;;;;-139.48;100.00;61774.03;4975812;28;20129;-71
2021/10/03 03:38:48;;;;;;;9.45;6.28;;;;;;;-139.48;100.00;61774.03;4947261;28;20404;-70
2021/10/03 03:41:31;;;;;;;8.50;6.10;;;;;;;-139.48;100.00;61774.03;4960753;28;20049;-70
2021/10/03 03:44:15;;;;;;;7.68;5.68;;;;;;;-139.48;100.00;61774.03;4947702;28;20105;-70
2021/10/03 03:47:00;;;;;;;7.38;5.95;;;;;;;-139.48;100.00;61774.03;4947369;28;20052;-70
2021/10/03 03:49:44;;;;;;;10.38;6.53;;;;;;;-139.48;100.00;61774.03;4960829;28;20045;-70
2021/10/03 03:52:28;;;;;;;9.73;7.03;;;;;;;-139.48;100.00;61774.03;4947265;28;20093;-70
2021/10/03 03:55:12;;;;;;;9.13;6.65;;;;;;;-139.48;100.00;61774.03;4947198;28;20046;-70
2021/10/03 03:57:57;;;;;;;9.30;7.18;;;;;;;-139.48;100.00;61774.03;4960742;28;20142;-70
2021/10/03 04:00:41;;;;;;;10.85;6.63;;;;;;;-139.48;100.00;61774.03;4960344;28;20066;-70
2021/10/03 04:03:25;;;;;;;9.38;6.97;;;;;;;-139.48;100.00;61774.03;4960424;28;20097;-70
2021/10/03 04:06:09;;;;;;;8.38;6.57;;;;;;;-139.48;100.00;61774.03;4960561;28;20050;-70
2021/10/03 04:08:53;;;;;;;8.40;6.72;;;;;;;-139.48;100.00;61774.03;4975154;28;20105;-70
2021/10/03 04:11:37;;;;;;;10.32;6.30;;;;;;;-139.48;100.00;61774.03;4960366;28;20058;-70
2021/10/03 04:14:21;;;;;;;10.10;6.30;;;;;;;-139.48;100.00;61774.03;4960482;28;20097;-70
2021/10/03 04:17:05;;;;;;;7.75;6.47;;;;;;;-139.48;100.00;61774.03;4960391;28;20149;-70
2021/10/03 04:19:49;;;;;;;9.43;6.53;;;;;;;-139.48;100.00;61774.03;4960127;28;20045;-70
2021/10/03 04:22:33;;;;;;;8.65;6.15;;;;;;;-139.48;100.00;61774.03;4974854;28;20120;-70
2021/10/03 04:25:17;;;;;;;7.90;6.35;;;;;;;-139.48;100.00;61774.03;4960314;28;20100;-70
2021/10/03 04:28:01;;;;;;;9.00;6.32;;;;;;;-139.48;100.00;61774.03;4960217;28;20065;-70
2021/10/03 04:30:45;;;;;;;6.93;6.22;;;;;;;-139.48;100.00;61774.03;4946371;28;20177;-70
2021/10/03 04:33:29;;;;;;;;;;;;;;;-139.48;100.00;61774.03;4960341;28;20049;-70
2021/10/03 04:36:16;;;;;;;11.07;6.07;;;;;;;-139.48;100.00;61774.03;4959968;28;19981;-70
2021/10/03 04:39:00;;;;;;;8.85;6.32;;;;;;;-139.48;100.00;61774.03;4959867;28;20158;-69
2021/10/03 04:41:44;;;;;;;8.20;6.47;;;;;;;-139.48;100.00;61774.03;4946243;28;20054;-70
2021/10/03 04:44:28;;;;;;;7.47;6.47;;;;;;;-139.48;100.00;61774.03;4959990;28;20105;-70
2021/10/03 04:47:12;;;;;;;8.18;6.75;;;;;;;-139.48;100.00;61774.03;4960259;28;20042;-70
2021/10/03 04:49:57;;;;;;;8.07;6.45;;;;;;;-139.48;100.00;61774.03;4946510;28;20093;-70
2021/10/03 04:52:46;;;;;;;7.80;6.15;;;;;;;-139.48;100.00;61774.03;4960092;28;20049;-70
2021/10/03 04:55:30;;;;;;;8.48;5.97;;;;;;;-139.48;100.00;61774.03;4946397;28;20053;-70
2021/10/03 04:58:14;;;;;;;8.45;6.57;;;;;;;-139.48;100.00;61774.03;4959741;28;20070;-70
2021/10/03 05:00:58;;;;;;;7.43;6.45;;;;;;;-139.48;100.00;61774.03;4959532;28;20110;-70
2021/10/03 05:03:42;;;;;;;9.23;7.53;;;;;;;-139.48;100.00;61774.03;4959894;28;20411;-70
2021/10/03 05:06:26;;;;;;;9.02;6.95;;;;;;;-139.48;100.00;61774.03;4959865;28;20069;-69
2021/10/03 05:09:12;;;;;;;9.63;7.30;;;;;;;-139.48;100.00;61774.03;4974398;28;20053;-70
2021/10/03 05:11:57;;;;;;;9.55;7.30;;;;;;;-139.48;100.00;61774.03;4959827;28;20077;-70
2021/10/03 05:14:40;;;;;;;8.35;7.00;;;;;;;-139.48;100.00;61774.03;4974449;28;20085;-70
2021/10/03 05:17:24;;;;;;;6.90;6.00;;;;;;;-139.48;100.00;61774.03;4959510;28;20081;-70
2021/10/03 05:20:09;;;;;;;7.65;6.18;;;;;;;-139.48;100.00;61774.03;4959484;28;20054;-70
2021/10/03 05:22:53;;;;;;;7.75;6.55;;;;;;;-139.48;100.00;61774.03;4959733;28;20487;-70
2021/10/03 05:25:37;;;;;;;8.30;5.85;;;;;;;-139.48;100.00;61774.03;4959720;28;20440;-70
2021/10/03 05:28:21;;;;;;;8.63;6.07;;;;;;;-139.48;100.00;61774.03;4974305;28;20053;-70
2021/10/03 05:31:05;;;;;;;7.05;6.18;;;;;;;-139.48;100.00;61774.03;4975638;28;20101;-70
2021/10/03 05:33:52;;;;;;;6.97;6.18;;;;;;;-139.48;100.00;61774.03;4961757;28;20093;-70
2021/10/03 05:36:36;;;;;;;10.20;6.22;;;;;;;-139.48;100.00;61774.03;4949572;28;20109;-70
2021/10/03 05:39:19;;;;;;;7.68;6.40;;;;;;;-139.48;100.00;61774.03;4963300;28;20124;-69
2021/10/03 05:42:03;;;;;;;9.95;6.63;;;;;;;-139.48;100.00;61774.03;4962943;28;20417;-70
2021/10/03 05:44:47;;;;;;;8.68;6.47;;;;;;;-139.48;100.00;61774.03;4977769;28;20089;-70
2021/10/03 05:47:31;;;;;;;10.20;6.40;;;;;;;-139.48;100.00;61774.03;4963101;28;20086;-69
2021/10/03 05:50:15;;;;;;;7.13;5.63;;;;;;;-139.48;100.00;61774.03;4962712;28;20054;-70
2021/10/03 05:52:59;;;;;;;9.07;6.40;;;;;;;-139.48;100.00;61774.03;4963052;28;20106;-70
2021/10/03 05:55:43;;;;;;;7.63;6.53;;;;;;;-139.48;100.00;61774.03;4963063;28;20093;-70
2021/10/03 05:58:27;;;;;;;10.13;7.30;;;;;;;-139.48;100.00;61774.03;4949694;28;20053;-70
2021/10/03 06:01:11;;;;;;;9.13;6.65;;;;;;;-139.48;100.00;61774.03;4962699;28;20599;-70
2021/10/03 06:03:56;;;;;;;8.63;6.95;;;;;;;-139.48;100.00;61774.03;4949176;28;20118;-69
2021/10/03 06:06:39;;;;;;;10.23;6.40;;;;;;;-139.48;100.00;61774.03;4949427;28;20061;-70
2021/10/03 06:09:23;;;;;;;8.52;6.50;;;;;;;-139.48;100.00;61774.03;4962673;28;20105;-70
2021/10/03 06:12:07;;;;;;;7.68;5.97;;;;;;;-139.48;100.00;61774.03;4948782;28;20057;-70
2021/10/03 06:14:51;;;;;;;8.60;6.90;;;;;;;-139.48;100.00;61774.03;4948781;28;20116;-70
2021/10/03 06:17:36;;;;;;;;;;;;;;;-139.48;100.00;61774.03;4949676;28;20109;-70
2021/10/03 06:20:21;;;;;;;10.30;6.65;;;;;;;-139.48;100.00;61774.03;4948725;28;19920;-70
2021/10/03 06:23:05;;;;;;;9.15;6.88;;;;;;;-139.48;100.00;61774.03;4962495;28;20085;-70
2021/10/03 06:25:49;;;;;;;7.68;6.40;;;;;;;-139.48;100.00;61774.03;4962474;28;20102;-70
2021/10/03 06:28:34;;;;;;;8.30;6.57;;;;;;;-139.48;100.00;61774.03;4948757;28;20547;-70
2021/10/03 06:31:18;;;;;;;10.05;6.40;;;;;;;-139.48;100.00;61774.03;4961996;28;20178;-70
2021/10/03 06:34:02;;;;;;;;;;;;;;;-139.48;100.00;61774.03;4962622;28;20097;-70
2021/10/03 06:36:46;;;;;;;9.18;6.90;;;;;;;-139.48;100.00;61774.03;4961988;28;19971;-70
2021/10/03 06:39:30;;;;;;;8.68;6.70;;;;;;;-139.48;100.00;61774.03;4962166;28;20085;-70
2021/10/03 06:42:14;;;;;;;9.75;6.55;;;;;;;-139.48;100.00;61774.03;4961903;28;20527;-70
2021/10/03 06:44:58;;;;;;;10.48;6.63;;;;;;;-139.48;100.00;61774.03;4961575;28;20054;-70
2021/10/03 06:47:42;;;;;;;8.82;6.75;;;;;;;-139.48;100.00;61774.03;4962025;28;20057;-70
2021/10/03 06:50:26;;;;;;;7.55;6.50;;;;;;;-139.48;100.00;61774.03;4961643;28;20054;-70
2021/10/03 06:53:10;;;;;;;7.57;6.05;;;;;;;-139.48;100.00;61774.03;4961746;28;20053;-70
2021/10/03 06:55:54;;;;;;;7.72;6.22;;;;;;;-139.48;100.00;61774.03;4976600;28;20102;-70
2021/10/03 06:58:38;;;;;;;8.18;6.93;;;;;;;-139.48;100.00;61774.03;4961727;28;20129;-70
2021/10/03 07:01:22;;;;;;;7.70;6.18;;;;;;;-139.48;100.00;61774.03;4948009;28;20098;-70
2021/10/03 07:04:06;;;;;;;9.23;6.97;;;;;;;-139.48;100.00;61774.03;4961757;28;20049;-70
2021/10/03 07:06:49;;;;;;;8.50;7.20;;;;;;;-139.48;100.00;61774.03;4961741;28;20050;-70
2021/10/03 07:09:33;;;;;;;7.93;7.03;;;;;;;-139.48;100.00;61774.03;4948095;28;20054;-68
2021/10/03 07:12:17;;;;;;;7.63;6.75;;;;;;;-139.48;100.00;61774.03;4976117;28;20074;-69
2021/10/03 07:15:02;;;;;;;8.20;6.78;;;;;;;-139.48;100.00;61774.03;4961484;28;20093;-69
2021/10/03 07:17:45;;;;;;;7.68;6.85;;;;;;;-139.48;100.00;61774.03;4961424;28;20137;-69
2021/10/03 07:20:30;;;;;;;10.98;7.35;;;;;;;-139.48;100.00;61774.03;4975736;28;20069;-69
2021/10/03 07:23:14;;;;;;;8.65;7.20;;;;;;;-139.48;100.00;61774.03;4961195;28;20054;-68
2021/10/03 07:25:58;;;;;;;8.43;6.75;;;;;;;-139.48;100.00;61774.03;4947551;28;20105;-70
2021/10/03 07:28:42;;;;;;;11.05;7.53;;;;;;;-139.48;100.00;61774.03;4961544;28;20133;-70
2021/10/03 07:31:30;;;;;;;9.00;7.05;;;;;;;-139.48;100.00;61774.03;4975497;28;20142;-70
2021/10/03 07:34:14;;;;;;;8.50;7.57;;;;;;;-139.48;100.00;61774.03;4947745;28;20126;-70
2021/10/03 07:36:58;;;;;;;9.10;7.13;;;;;;;-139.48;100.00;61774.03;4947017;28;20049;-70
2021/10/03 07:39:42;;;;;;;11.65;8.43;;;;;;;-139.48;100.00;61774.03;4960343;28;20093;-71
2021/10/03 07:42:26;;;;;;;10.50;7.43;;;;;;;-139.48;100.00;61774.03;4947208;28;20061;-71
2021/10/03 07:45:10;;;;;;;8.88;7.32;;;;;;;-139.48;100.00;61774.03;4975044;28;20074;-71
2021/10/03 07:47:55;;;;;;;8.18;6.55;;;;;;;-139.48;100.00;61774.03;4946590;28;20488;-71
2021/10/03 07:50:39;;;;;;;9.05;7.03;;;;;;;-139.48;100.00;61774.03;4959949;28;20463;-71
2021/10/03 07:53:23;;;;;;;7.30;6.20;;;;;;;-139.48;100.00;61774.03;4974873;28;20053;-72
2021/10/03 07:56:07;;;;;;;7.30;6.60;;;;;;;-139.48;100.00;61774.03;4945635;28;20077;-72
2021/10/03 07:58:51;;;;;;;7.75;6.50;;;;;;;-139.48;100.00;61774.03;4946563;28;20054;-72
2021/10/03 08:01:35;;;;;;;8.25;6.50;;;;;;;-139.48;100.00;61774.03;4974666;28;20411;-72
2021/10/03 08:04:19;;;;;;;8.20;6.55;;;;;;;-139.48;100.00;61774.03;4946613;28;20404;-72
2021/10/03 08:07:03;;;;;;;7.72;6.70;;;;;;;-139.48;100.00;61774.03;4959956;28;20050;-72
2021/10/03 08:09:47;;;;;;;11.18;6.43;;;;;;;-139.48;100.00;61774.03;4974502;28;20054;-72
2021/10/03 08:12:31;;;;;;;6.90;6.07;;;;;;;-139.48;100.00;61774.03;4959633;28;20535;-71
2021/10/03 08:15:16;;;;;;;8.50;6.55;;;;;;;-139.48;100.00;61774.03;4960122;28;20061;-72
2021/10/03 08:18:00;;;;;;;7.50;6.47;;;;;;;-139.48;100.00;61774.03;4973097;28;20054;-71
2021/10/03 08:20:45;;;;;;;7.78;6.60;;;;;;;-139.48;100.00;61774.03;4974458;28;20065;-72
2021/10/03 08:23:29;;;;;;;8.40;7.28;;;;;;;-139.48;100.00;61774.03;4946330;28;20522;-71
2021/10/03 08:26:12;;;;;;;9.10;7.03;;;;;;;-139.48;100.00;61774.03;4959909;28;20045;-72
2021/10/03 08:28:56;;;;;;;9.32;7.53;;;;;;;-139.48;100.00;61774.03;4959668;28;20117;-71
2021/10/03 08:31:40;;;;;;;9.07;7.72;;;;;;;-139.48;100.00;61774.03;4958952;28;20057;-71
2021/10/03 08:34:24;;;;;;;10.50;7.65;;;;;;;-139.48;100.00;61774.03;4959504;28;20054;-72
2021/10/03 08:37:08;;;;;;;8.40;7.50;;;;;;;-139.48;100.00;61774.03;4959207;28;20161;-71
2021/10/03 08:39:52;;;;;;;10.43;7.78;;;;;;;-139.48;100.00;61774.03;4945944;28;20130;-70
2021/10/03 08:42:36;;;;;;;11.45;7.70;;;;;;;-139.48;100.00;61774.03;4945823;28;20455;-71
2021/10/03 08:45:20;;;;;;;10.75;8.05;;;;;;;-139.48;100.00;61774.03;4959365;28;20154;-72
2021/10/03 08:48:04;;;;;;;13.30;7.88;;;;;;;-139.48;100.00;61774.03;4945799;28;20053;-71
2021/10/03 08:50:48;;;;;;;9.15;7.65;;;;;;;-139.48;100.00;61774.03;4959081;28;20158;-71
2021/10/03 08:53:32;;;;;;;8.48;7.47;;;;;;;-139.48;100.00;61774.03;4959012;28;20072;-71
2021/10/03 08:56:16;;;;;;;10.25;7.97;;;;;;;-139.48;100.00;61774.03;4959194;28;20505;-70
2021/10/03 08:59:00;;;;;;;11.00;9.75;;;;;;;-139.48;100.00;61774.03;4959176;28;20045;-71
2021/10/03 09:01:51;;;;;;;12.52;10.02;;;;;;;-139.48;100.00;61774.03;4958890;28;20468;-71
2021/10/03 09:04:38;;;;;;;10.23;8.77;;;;;;;-139.48;100.00;61774.03;4973825;28;20615;-71
2021/10/03 09:07:28;;;;;;;13.85;10.52;;;;;;;-139.48;100.00;61774.03;4960767;28;20169;-71
2021/10/03 09:10:12;;;;;;;11.55;9.10;;;;;;;-139.48;100.00;61774.03;4976503;28;20053;-71
2021/10/03 09:12:58;;;;;;;11.68;8.68;;;;;;;-139.48;100.00;61774.03;4963338;28;20399;-71
2021/10/03 09:15:41;;;;;;;9.85;8.18;;;;;;;-139.48;100.00;61774.03;4962933;28;20050;-72
2021/10/03 09:18:33;;;;;;;;;;;;;;;-139.48;100.00;61774.03;4949882;28;20116;-72
2021/10/03 09:21:29;;;;;;;11.63;9.57;;;;;;;-139.48;100.00;61774.03;4962894;28;19921;-70
2021/10/03 09:24:18;;;;;;;13.57;9.35;;;;;;;-139.48;100.00;61774.03;4962820;28;20054;-70
2021/10/03 09:27:06;;;;;;;13.00;10.32;;;;;;;-139.48;100.00;61774.03;4977274;28;20049;-71
2021/10/03 09:30:05;;;;;;;12.18;9.73;;;;;;;-139.48;100.00;61774.03;4963290;28;20053;-70
2021/10/03 09:32:59;;;;;;;12.07;8.90;;;;;;;-139.48;100.00;61774.03;4948942;28;20579;-72
2021/10/03 09:35:54;;;;;;;10.73;8.75;;;;;;;-139.48;100.00;61774.03;4962718;28;20085;-72
2021/10/03 09:38:59;;;;;;;11.02;9.38;;;;;;;-139.48;100.00;61774.03;4948964;28;20104;-71
2021/10/03 09:41:43;;;;;;;10.93;9.05;;;;;;;-139.48;100.00;61774.03;4962263;28;20049;-71
2021/10/03 09:44:27;;;;;;;11.88;9.35;;;;;;;-139.48;100.00;61774.03;4976987;28;20058;-72
2021/10/03 09:47:11;;;;;;;10.95;7.88;;;;;;;-139.48;100.00;61774.03;4948886;28;20049;-71
2021/10/03 09:49:57;;;;;;;11.02;7.80;;;;;;;-139.48;100.00;61774.03;4962051;28;20101;-72
2021/10/03 09:52:41;;;;;;;10.45;8.35;;;;;;;-139.48;100.00;61774.03;4962233;28;20519;-71
2021/10/03 09:55:26;;;;;;;10.65;8.15;;;;;;;-139.48;100.00;61774.03;4977001;28;20097;-72
2021/10/03 09:58:12;;;;;;;9.82;7.93;;;;;;;-139.48;100.00;61774.03;4962165;28;20105;-72
2021/10/03 10:00:56;;;;;;;11.38;9.15;;;;;;;-139.48;100.00;61774.03;4948614;28;20101;-72
2021/10/03 10:03:41;;;;;;;12.95;10.55;;;;;;;-139.48;100.00;61774.03;4962012;28;20114;-72
2021/10/03 10:06:24;;;;;;;14.82;11.52;;;;;;;-139.48;100.00;61774.03;4962355;28;20050;-71
2021/10/03 10:09:12;;;;;;;11.75;9.55;;;;;;;-139.48;100.00;61774.03;4975496;28;20097;-71
2021/10/03 10:12:01;;;;;;;10.55;8.77;;;;;;;-139.48;100.00;61774.03;4961694;28;20101;-71
2021/10/03 10:14:48;;;;;;;10.88;9.25;;;;;;;-139.48;100.00;61774.03;4962273;28;20553;-72
2021/10/03 10:17:35;;;;;;;13.73;11.18;;;;;;;-139.48;100.00;61774.03;4961843;28;20368;-71
2021/10/03 10:20:24;;;;;;;15.25;11.63;;;;;;;-139.48;100.00;61774.03;4947831;28;20052;-71
2021/10/03 10:23:12;;;;;;;14.13;10.57;;;;;;;-139.48;100.00;61774.03;4976557;28;20053;-72
2021/10/03 10:25:58;;;;;;;14.02;10.82;;;;;;;-139.48;100.00;61774.03;4961926;28;20519;-71
2021/10/03 10:28:42;;;;;;;17.05;11.10;;;;;;;-139.48;100.00;61774.03;4961630;28;20473;-71
2021/10/03 10:31:33;;;;;;;12.63;9.50;;;;;;;-139.48;100.00;61774.03;4974962;28;20054;-71
2021/10/03 10:34:17;;;;;;;13.43;9.88;;;;;;;-139.48;100.00;61774.03;4949276;28;20050;-72
2021/10/03 10:37:01;;;;;;;12.38;9.98;;;;;;;-139.48;100.00;61774.03;4947956;28;20104;-72
2021/10/03 10:39:45;;;;;;;13.07;9.98;;;;;;;-139.48;100.00;61774.03;4947801;28;20050;-71
2021/10/03 10:42:28;;;;;;;14.75;10.57;;;;;;;-139.48;100.00;61774.03;4961235;28;20070;-72
2021/10/03 10:45:28;;;;;;;11.95;10.25;;;;;;;-139.48;100.00;61774.03;4961220;28;20129;-72
2021/10/03 10:48:11;;;;;;;14.45;11.48;;;;;;;-139.48;100.00;61774.03;4961640;28;20141;-71
2021/10/03 10:51:15;;;;;;;14.75;11.73;;;;;;;-139.48;100.00;61774.03;4975732;28;20046;-71
2021/10/03 10:54:13;;;;;;;14.52;11.30;;;;;;;-139.48;100.00;61774.03;4961328;28;20089;-71
2021/10/03 10:57:08;;;;;;;14.90;11.20;;;;;;;-139.48;100.00;61774.03;4947811;28;20050;-72
2021/10/03 11:00:24;;;;;;;15.27;12.35;;;;;;;-139.48;100.00;61774.03;4961235;28;20090;-69
2021/10/03 11:03:08;;;;;;;10.98;9.30;;;;;;;-139.48;100.00;61774.03;4961057;28;20101;-72
2021/10/03 11:05:53;;;;;;;12.52;8.95;;;;;;;-139.48;100.00;61774.03;4947317;28;20073;-72
2021/10/03 11:09:09;;;;;;;9.13;7.45;;;;;;;-139.48;100.00;61774.03;4975732;28;20196;-71
2021/10/03 11:12:02;;;;;;;9.40;7.90;;;;;;;-139.48;100.00;61774.03;4960959;28;20097;-71
2021/10/03 11:14:46;;;;;;;9.80;7.68;;;;;;;-139.48;100.00;61774.03;4975596;28;20049;-71
2021/10/03 11:17:30;;;;;;;9.68;7.78;;;;;;;-139.48;100.00;61774.03;4960777;28;20054;-72
2021/10/03 11:20:15;;;;;;;7.43;6.57;;;;;;;-139.48;100.00;61774.03;4947196;28;20049;-71
2021/10/03 11:22:58;;;;;;;8.98;6.60;;;;;;;-139.48;100.00;61774.03;4960722;28;20132;-70
2021/10/03 11:25:42;;;;;;;10.15;7.68;;;;;;;-139.48;100.00;61774.03;4975105;28;20050;-71
2021/10/03 11:28:46;;;;;;;8.23;6.90;;;;;;;-139.48;100.00;61774.03;4947316;28;20499;-71
2021/10/03 11:31:41;;;;;;;8.18;6.20;;;;;;;-139.48;100.00;61774.03;4959147;28;20052;-71
2021/10/03 11:34:31;;;;;;;10.63;6.80;;;;;;;-139.48;100.00;61774.03;4946988;28;20415;-71
2021/10/03 11:37:24;;;;;;;10.05;6.97;;;;;;;-139.48;100.00;61774.03;4960709;28;20412;-71
2021/10/03 11:40:17;;;;;;;7.43;6.60;;;;;;;-139.48;100.00;61774.03;4960094;28;20520;-70
2021/10/03 11:43:02;;;;;;;12.25;6.10;;;;;;;-139.48;100.00;61774.03;4960263;28;20049;-71
2021/10/03 11:45:46;;;;;;;6.70;5.93;;;;;;;-139.48;100.00;61774.03;4946758;28;20562;-71
2021/10/03 11:48:29;;;;;;;7.22;6.20;;;;;;;-139.48;100.00;61774.03;4974786;28;20510;-71
2021/10/03 11:51:13;;;;;;;9.55;6.10;;;;;;;-139.48;100.00;61774.03;4975109;28;20113;-72
2021/10/03 11:53:59;;;;;;;;;;;;;;;-139.48;100.00;61774.03;4975235;28;20053;-71
2021/10/03 11:56:45;;;;;;;6.10;5.47;;;;;;;-139.48;100.00;61774.03;4960175;28;19921;-71
2021/10/03 11:59:29;;;;;;;8.63;6.30;;;;;;;-139.48;100.00;61774.03;4974748;28;20053;-71
2021/10/03 12:02:19;;;;;;;7.50;6.28;;;;;;;-139.48;100.00;61774.03;4959975;28;20555;-71
2021/10/03 12:05:05;;;;;;;7.15;6.00;;;;;;;-139.48;100.00;61774.03;4974427;28;20527;-70
2021/10/03 12:08:09;;;;;;;7.95;6.10;;;;;;;-139.48;100.00;61774.03;4959857;28;20133;-72
2021/10/03 12:10:59;;;;;;;6.25;5.57;;;;;;;-139.48;100.00;61774.03;4946186;28;20403;-72
2021/10/03 12:14:02;;;;;;;6.85;5.68;;;;;;;-139.48;100.00;61774.03;4946115;28;20069;-72
2021/10/03 12:16:53;;;;;;;8.48;7.25;;;;;;;-139.48;100.00;61774.03;4959651;28;20058;-71
2021/10/03 12:19:59;;;;;;;10.18;7.03;;;;;;;-139.48;100.00;61774.03;4959732;28;20053;-71
2021/10/03 12:22:56;;;;;;;11.27;6.93;;;;;;;-139.48;100.00;61774.03;4974110;28;20053;-71
2021/10/03 12:25:41;;;;;;;8.50;7.55;;;;;;;-139.48;100.00;61774.03;4946045;28;20083;-72
2021/10/03 12:28:24;;;;;;;8.48;6.30;;;;;;;-139.48;100.00;61774.03;4945957;28;20101;-72
2021/10/03 12:31:08;;;;;;;;;;;;;;;-139.48;100.00;61774.03;4974396;28;20050;-71
2021/10/03 12:33:52;;;;;;;10.77;6.75;;;;;;;-139.48;100.00;61774.03;4945999;28;20002;-71